createdAt,value
2022-11-17T00:00:20.018Z,3.04
2022-11-17T00:15:21.917Z,2.97
2022-11-17T00:30:44.030Z,2.97
2022-11-17T00:45:46.059Z,2.81
2022-11-17T01:00:50.772Z,2.77
2022-11-17T01:15:52.719Z,2.73
2022-11-17T01:31:10.599Z,2.71
2022-11-17T01:46:54.574Z,2.57
2022-11-17T02:01:59.309Z,2.53
2022-11-17T02:17:10.142Z,2.49
2022-11-17T02:32:43.017Z,2.50
2022-11-17T02:47:48.379Z,2.53
2022-11-17T03:03:15.054Z,2.53
2022-11-17T03:18:38.436Z,2.49
2022-11-17T03:33:41.915Z,2.46
2022-11-17T03:48:50.998Z,2.43
2022-11-17T04:03:53.493Z,2.35
2022-11-17T04:18:58.930Z,2.18
2022-11-17T04:34:06.353Z,2.06
2022-11-17T04:49:08.873Z,2.02
2022-11-17T05:04:13.035Z,1.98
2022-11-17T05:19:20.517Z,1.98
2022-11-17T05:34:22.475Z,1.94
2022-11-17T05:49:24.457Z,1.90
2022-11-17T06:04:26.483Z,1.82
2022-11-17T06:19:35.045Z,1.77
2022-11-17T06:34:37.816Z,1.71
2022-11-17T06:49:39.735Z,1.77
2022-11-17T07:04:41.707Z,1.75
2022-11-17T07:19:43.705Z,1.68
2022-11-17T07:34:45.743Z,1.56
2022-11-17T07:49:47.745Z,1.54
2022-11-17T08:04:49.782Z,1.46
2022-11-17T08:19:51.783Z,1.52
2022-11-17T08:34:53.945Z,1.54
2022-11-17T08:49:56.032Z,1.57
2022-11-17T09:04:58.001Z,1.78
2022-11-17T09:19:59.999Z,1.75
2022-11-17T09:35:04.298Z,1.78
2022-11-17T09:50:34.317Z,1.88
2022-11-17T10:05:36.599Z,2.09
2022-11-17T10:20:38.538Z,2.12
2022-11-17T10:35:40.537Z,2.09
2022-11-17T10:51:02.398Z,2.18
2022-11-17T11:06:21.957Z,2.29
2022-11-17T11:21:42.300Z,2.70
2022-11-17T11:36:56.217Z,2.73
2022-11-17T11:51:58.740Z,2.45
2022-11-17T12:07:31.015Z,2.26
2022-11-17T12:22:33.019Z,2.36
2022-11-17T12:37:35.000Z,2.85
2022-11-17T12:53:04.510Z,2.28
2022-11-17T13:08:09.617Z,1.68
2022-11-17T13:23:32.843Z,1.31
2022-11-17T13:38:35.359Z,1.40
2022-11-17T13:53:41.717Z,1.42
2022-11-17T14:09:02.338Z,0.89
2022-11-17T14:24:13.020Z,0.47
2022-11-17T14:39:17.375Z,0.03
2022-11-17T14:54:19.779Z,-0.37
2022-11-17T15:09:21.859Z,-0.77
2022-11-17T15:24:24.317Z,-1.13
2022-11-17T15:39:26.260Z,-1.49
2022-11-17T15:54:28.220Z,-1.67
2022-11-17T16:09:30.279Z,-1.80
2022-11-17T16:24:32.220Z,-1.95
2022-11-17T16:39:34.099Z,-2.06
2022-11-17T16:54:36.137Z,-2.13
2022-11-17T17:09:38.238Z,-2.30
2022-11-17T17:24:40.180Z,-2.49
2022-11-17T17:39:42.159Z,-2.52
2022-11-17T17:54:44.079Z,-2.63
2022-11-17T18:09:46.658Z,-2.78
2022-11-17T18:24:48.558Z,-2.92
2022-11-17T18:39:51.906Z,-3.16
2022-11-17T18:54:53.978Z,-3.18
2022-11-17T19:09:55.958Z,-3.29
2022-11-17T19:24:57.959Z,-3.47
2022-11-17T19:39:59.877Z,-3.56
2022-11-17T19:55:02.107Z,-3.63
2022-11-17T20:10:04.097Z,-3.70
2022-11-17T20:25:07.559Z,-3.84
2022-11-17T20:40:10.458Z,-3.95
2022-11-17T20:55:12.495Z,-4.16
2022-11-17T21:10:14.757Z,-4.33
2022-11-17T21:25:16.839Z,-4.40
2022-11-17T21:40:19.345Z,-4.47
2022-11-17T21:55:21.332Z,-4.49
2022-11-17T22:10:23.377Z,-4.30
2022-11-17T22:25:44.037Z,-3.73
2022-11-17T22:40:46.961Z,-3.18
2022-11-17T22:55:48.908Z,-2.67
2022-11-17T23:11:03.890Z,-2.23
2022-11-17T23:26:13.345Z,-1.88
2022-11-17T23:41:16.925Z,-1.70
2022-11-17T23:56:25.266Z,-1.56
